sensor_id;sensor_type;location;lat;lon;timestamp;P1;durP1;ratioP1;P2;durP2;ratioP2
20138;SDS011;10230;51.502;10.800;2023-04-25T00:02:09;2.23;;;1.50;;
20138;SDS011;10230;51.502;10.800;2023-04-25T00:04:35;2.20;;;1.53;;
20138;SDS011;10230;51.502;10.800;2023-04-25T00:07:02;1.77;;;1.50;;
20138;SDS011;10230;51.502;10.800;2023-04-25T00:09:29;2.73;;;1.40;;
20138;SDS011;10230;51.502;10.800;2023-04-25T00:11:56;2.60;;;1.90;;
20138;SDS011;10230;51.502;10.800;2023-04-25T00:14:22;4.93;;;1.90;;
20138;SDS011;10230;51.502;10.800;2023-04-25T00:16:48;2.80;;;1.50;;
20138;SDS011;10230;51.502;10.800;2023-04-25T00:19:16;2.60;;;1.30;;
20138;SDS011;10230;51.502;10.800;2023-04-25T00:21:42;6.67;;;1.77;;
20138;SDS011;10230;51.502;10.800;2023-04-25T00:24:10;3.93;;;1.63;;
20138;SDS011;10230;51.502;10.800;2023-04-25T00:26:35;2.13;;;1.13;;
20138;SDS011;10230;51.502;10.800;2023-04-25T00:29:01;3.23;;;1.10;;
20138;SDS011;10230;51.502;10.800;2023-04-25T00:31:27;2.40;;;1.60;;
20138;SDS011;10230;51.502;10.800;2023-04-25T00:33:54;2.90;;;1.60;;
20138;SDS011;10230;51.502;10.800;2023-04-25T00:36:20;3.83;;;1.47;;
20138;SDS011;10230;51.502;10.800;2023-04-25T00:38:45;6.03;;;1.47;;
20138;SDS011;10230;51.502;10.800;2023-04-25T00:41:11;1.80;;;1.27;;
20138;SDS011;10230;51.502;10.800;2023-04-25T00:43:37;5.07;;;1.20;;
20138;SDS011;10230;51.502;10.800;2023-04-25T00:46:03;4.10;;;1.80;;
20138;SDS011;10230;51.502;10.800;2023-04-25T00:48:29;3.97;;;1.60;;
20138;SDS011;10230;51.502;10.800;2023-04-25T00:50:57;5.47;;;1.30;;
20138;SDS011;10230;51.502;10.800;2023-04-25T00:53:24;4.00;;;1.37;;
20138;SDS011;10230;51.502;10.800;2023-04-25T00:55:50;2.63;;;1.50;;
20138;SDS011;10230;51.502;10.800;2023-04-25T00:58:17;4.77;;;1.43;;
20138;SDS011;10230;51.502;10.800;2023-04-25T01:00:43;2.17;;;1.27;;
20138;SDS011;10230;51.502;10.800;2023-04-25T01:03:13;3.67;;;1.27;;
20138;SDS011;10230;51.502;10.800;2023-04-25T01:05:41;2.13;;;1.50;;
20138;SDS011;10230;51.502;10.800;2023-04-25T01:08:08;4.13;;;1.60;;
20138;SDS011;10230;51.502;10.800;2023-04-25T01:10:33;4.13;;;1.80;;
20138;SDS011;10230;51.502;10.800;2023-04-25T01:12:59;3.60;;;1.10;;
20138;SDS011;10230;51.502;10.800;2023-04-25T01:15:24;2.80;;;1.60;;
20138;SDS011;10230;51.502;10.800;2023-04-25T01:17:50;5.63;;;1.27;;
20138;SDS011;10230;51.502;10.800;2023-04-25T01:20:16;4.27;;;1.57;;
20138;SDS011;10230;51.502;10.800;2023-04-25T01:22:42;3.67;;;1.37;;
20138;SDS011;10230;51.502;10.800;2023-04-25T01:25:08;3.10;;;1.60;;
20138;SDS011;10230;51.502;10.800;2023-04-25T01:27:35;3.67;;;1.50;;
20138;SDS011;10230;51.502;10.800;2023-04-25T01:30:02;6.13;;;1.73;;
20138;SDS011;10230;51.502;10.800;2023-04-25T01:32:28;7.37;;;1.63;;
20138;SDS011;10230;51.502;10.800;2023-04-25T01:35:03;4.93;;;1.60;;
20138;SDS011;10230;51.502;10.800;2023-04-25T01:37:29;5.60;;;1.90;;
20138;SDS011;10230;51.502;10.800;2023-04-25T01:39:55;4.27;;;1.87;;
20138;SDS011;10230;51.502;10.800;2023-04-25T01:42:21;3.47;;;1.20;;
20138;SDS011;10230;51.502;10.800;2023-04-25T01:44:46;3.63;;;1.93;;
20138;SDS011;10230;51.502;10.800;2023-04-25T01:47:12;5.77;;;1.70;;
20138;SDS011;10230;51.502;10.800;2023-04-25T01:49:38;4.97;;;1.77;;
20138;SDS011;10230;51.502;10.800;2023-04-25T01:52:03;2.73;;;1.37;;
20138;SDS011;10230;51.502;10.800;2023-04-25T01:54:29;3.90;;;1.83;;
20138;SDS011;10230;51.502;10.800;2023-04-25T01:56:56;3.67;;;1.90;;
20138;SDS011;10230;51.502;10.800;2023-04-25T01:59:22;3.80;;;1.80;;
20138;SDS011;10230;51.502;10.800;2023-04-25T02:01:48;6.40;;;1.50;;
20138;SDS011;10230;51.502;10.800;2023-04-25T02:04:13;5.03;;;2.23;;
20138;SDS011;10230;51.502;10.800;2023-04-25T02:06:39;2.93;;;1.90;;
20138;SDS011;10230;51.502;10.800;2023-04-25T02:09:05;4.10;;;2.17;;
20138;SDS011;10230;51.502;10.800;2023-04-25T02:11:30;7.57;;;2.37;;
20138;SDS011;10230;51.502;10.800;2023-04-25T02:13:56;5.77;;;2.00;;
20138;SDS011;10230;51.502;10.800;2023-04-25T02:16:21;4.17;;;2.63;;
20138;SDS011;10230;51.502;10.800;2023-04-25T02:18:47;8.07;;;2.43;;
20138;SDS011;10230;51.502;10.800;2023-04-25T02:21:13;4.37;;;2.23;;
20138;SDS011;10230;51.502;10.800;2023-04-25T02:23:38;3.20;;;2.20;;
20138;SDS011;10230;51.502;10.800;2023-04-25T02:26:04;5.57;;;2.67;;
20138;SDS011;10230;51.502;10.800;2023-04-25T02:28:30;5.47;;;2.67;;
20138;SDS011;10230;51.502;10.800;2023-04-25T02:30:56;4.30;;;2.10;;
20138;SDS011;10230;51.502;10.800;2023-04-25T02:33:21;8.13;;;2.13;;
20138;SDS011;10230;51.502;10.800;2023-04-25T02:35:47;5.60;;;2.47;;
20138;SDS011;10230;51.502;10.800;2023-04-25T02:38:13;6.97;;;2.23;;
20138;SDS011;10230;51.502;10.800;2023-04-25T02:40:38;4.43;;;2.70;;
20138;SDS011;10230;51.502;10.800;2023-04-25T02:43:04;5.20;;;2.17;;
20138;SDS011;10230;51.502;10.800;2023-04-25T02:45:29;7.93;;;2.17;;
20138;SDS011;10230;51.502;10.800;2023-04-25T02:47:55;6.43;;;2.43;;
20138;SDS011;10230;51.502;10.800;2023-04-25T02:50:21;5.30;;;2.27;;
20138;SDS011;10230;51.502;10.800;2023-04-25T02:52:46;6.37;;;2.87;;
20138;SDS011;10230;51.502;10.800;2023-04-25T02:55:13;4.77;;;2.40;;
20138;SDS011;10230;51.502;10.800;2023-04-25T02:57:38;4.27;;;2.43;;
20138;SDS011;10230;51.502;10.800;2023-04-25T03:00:04;3.70;;;2.00;;
20138;SDS011;10230;51.502;10.800;2023-04-25T03:02:30;4.50;;;2.33;;
20138;SDS011;10230;51.502;10.800;2023-04-25T03:04:56;7.20;;;2.90;;
20138;SDS011;10230;51.502;10.800;2023-04-25T03:07:22;5.50;;;2.20;;
20138;SDS011;10230;51.502;10.800;2023-04-25T03:09:47;8.63;;;2.40;;
20138;SDS011;10230;51.502;10.800;2023-04-25T03:12:13;3.27;;;2.10;;
20138;SDS011;10230;51.502;10.800;2023-04-25T03:14:39;5.20;;;3.00;;
20138;SDS011;10230;51.502;10.800;2023-04-25T03:17:04;4.70;;;2.40;;
20138;SDS011;10230;51.502;10.800;2023-04-25T03:19:30;4.77;;;2.03;;
20138;SDS011;10230;51.502;10.800;2023-04-25T03:21:56;6.03;;;2.30;;
20138;SDS011;10230;51.502;10.800;2023-04-25T03:24:21;3.93;;;2.23;;
20138;SDS011;10230;51.502;10.800;2023-04-25T03:26:47;3.33;;;2.60;;
20138;SDS011;10230;51.502;10.800;2023-04-25T03:29:12;6.07;;;3.43;;
20138;SDS011;10230;51.502;10.800;2023-04-25T03:31:38;6.70;;;3.07;;
20138;SDS011;10230;51.502;10.800;2023-04-25T03:34:04;6.77;;;3.00;;
20138;SDS011;10230;51.502;10.800;2023-04-25T03:36:29;6.30;;;2.43;;
20138;SDS011;10230;51.502;10.800;2023-04-25T03:38:55;5.47;;;2.67;;
20138;SDS011;10230;51.502;10.800;2023-04-25T03:41:21;4.57;;;2.47;;
20138;SDS011;10230;51.502;10.800;2023-04-25T03:43:46;7.70;;;3.30;;
20138;SDS011;10230;51.502;10.800;2023-04-25T03:46:12;5.53;;;2.50;;
20138;SDS011;10230;51.502;10.800;2023-04-25T03:48:38;8.67;;;3.00;;
20138;SDS011;10230;51.502;10.800;2023-04-25T03:51:03;8.13;;;3.10;;
20138;SDS011;10230;51.502;10.800;2023-04-25T03:53:29;7.33;;;3.07;;
20138;SDS011;10230;51.502;10.800;2023-04-25T03:55:55;6.93;;;3.93;;
20138;SDS011;10230;51.502;10.800;2023-04-25T03:58:20;6.47;;;2.90;;
20138;SDS011;10230;51.502;10.800;2023-04-25T04:00:48;8.03;;;2.73;;
20138;SDS011;10230;51.502;10.800;2023-04-25T04:03:13;5.23;;;3.20;;
20138;SDS011;10230;51.502;10.800;2023-04-25T04:05:39;5.57;;;2.70;;
20138;SDS011;10230;51.502;10.800;2023-04-25T04:08:05;6.03;;;3.00;;
20138;SDS011;10230;51.502;10.800;2023-04-25T04:10:31;5.57;;;3.00;;
20138;SDS011;10230;51.502;10.800;2023-04-25T04:12:57;4.73;;;2.80;;
20138;SDS011;10230;51.502;10.800;2023-04-25T04:15:23;8.00;;;3.73;;
20138;SDS011;10230;51.502;10.800;2023-04-25T04:17:48;7.90;;;3.50;;
20138;SDS011;10230;51.502;10.800;2023-04-25T04:20:14;7.67;;;3.20;;
20138;SDS011;10230;51.502;10.800;2023-04-25T04:22:40;9.23;;;3.87;;
20138;SDS011;10230;51.502;10.800;2023-04-25T04:25:06;10.37;;;3.27;;
20138;SDS011;10230;51.502;10.800;2023-04-25T04:27:32;4.60;;;3.23;;
20138;SDS011;10230;51.502;10.800;2023-04-25T04:29:58;7.57;;;3.03;;
20138;SDS011;10230;51.502;10.800;2023-04-25T04:32:23;9.50;;;3.87;;
20138;SDS011;10230;51.502;10.800;2023-04-25T04:34:50;7.03;;;3.70;;
20138;SDS011;10230;51.502;10.800;2023-04-25T04:37:17;7.57;;;3.53;;
20138;SDS011;10230;51.502;10.800;2023-04-25T04:39:43;10.70;;;3.53;;
20138;SDS011;10230;51.502;10.800;2023-04-25T04:42:09;6.43;;;3.30;;
20138;SDS011;10230;51.502;10.800;2023-04-25T04:44:36;9.47;;;3.13;;
20138;SDS011;10230;51.502;10.800;2023-04-25T04:47:03;7.00;;;3.97;;
20138;SDS011;10230;51.502;10.800;2023-04-25T04:49:31;4.33;;;2.63;;
20138;SDS011;10230;51.502;10.800;2023-04-25T04:51:57;8.83;;;4.33;;
20138;SDS011;10230;51.502;10.800;2023-04-25T04:54:24;9.63;;;3.47;;
20138;SDS011;10230;51.502;10.800;2023-04-25T04:56:50;5.37;;;2.60;;
20138;SDS011;10230;51.502;10.800;2023-04-25T04:59:17;7.50;;;2.90;;
20138;SDS011;10230;51.502;10.800;2023-04-25T05:01:42;9.23;;;3.20;;
20138;SDS011;10230;51.502;10.800;2023-04-25T05:04:08;7.40;;;3.60;;
20138;SDS011;10230;51.502;10.800;2023-04-25T05:06:34;8.67;;;2.63;;
20138;SDS011;10230;51.502;10.800;2023-04-25T05:08:59;7.90;;;2.93;;
20138;SDS011;10230;51.502;10.800;2023-04-25T05:11:25;5.40;;;2.60;;
20138;SDS011;10230;51.502;10.800;2023-04-25T05:13:51;7.23;;;2.87;;
20138;SDS011;10230;51.502;10.800;2023-04-25T05:16:17;6.30;;;3.10;;
20138;SDS011;10230;51.502;10.800;2023-04-25T05:18:45;5.27;;;2.53;;
20138;SDS011;10230;51.502;10.800;2023-04-25T05:21:11;3.27;;;2.33;;
20138;SDS011;10230;51.502;10.800;2023-04-25T05:23:37;5.13;;;2.77;;
20138;SDS011;10230;51.502;10.800;2023-04-25T05:26:03;5.63;;;2.63;;
20138;SDS011;10230;51.502;10.800;2023-04-25T05:28:29;6.87;;;3.00;;
20138;SDS011;10230;51.502;10.800;2023-04-25T05:30:54;5.67;;;2.77;;
20138;SDS011;10230;51.502;10.800;2023-04-25T05:33:21;6.23;;;3.17;;
20138;SDS011;10230;51.502;10.800;2023-04-25T05:35:48;5.53;;;2.43;;
20138;SDS011;10230;51.502;10.800;2023-04-25T05:38:14;6.67;;;2.70;;
20138;SDS011;10230;51.502;10.800;2023-04-25T05:40:39;7.93;;;3.87;;
20138;SDS011;10230;51.502;10.800;2023-04-25T05:43:05;8.03;;;3.30;;
20138;SDS011;10230;51.502;10.800;2023-04-25T05:45:32;11.77;;;3.93;;
20138;SDS011;10230;51.502;10.800;2023-04-25T05:47:57;5.60;;;3.20;;
20138;SDS011;10230;51.502;10.800;2023-04-25T05:50:23;11.20;;;3.90;;
20138;SDS011;10230;51.502;10.800;2023-04-25T05:52:49;6.27;;;3.13;;
20138;SDS011;10230;51.502;10.800;2023-04-25T05:55:15;11.93;;;3.70;;
20138;SDS011;10230;51.502;10.800;2023-04-25T05:57:41;7.23;;;3.77;;
20138;SDS011;10230;51.502;10.800;2023-04-25T06:00:12;4.63;;;2.77;;
20138;SDS011;10230;51.502;10.800;2023-04-25T06:02:40;6.83;;;3.97;;
20138;SDS011;10230;51.502;10.800;2023-04-25T06:05:06;10.13;;;3.80;;
20138;SDS011;10230;51.502;10.800;2023-04-25T06:07:32;8.77;;;4.70;;
20138;SDS011;10230;51.502;10.800;2023-04-25T06:09:58;7.60;;;3.60;;
20138;SDS011;10230;51.502;10.800;2023-04-25T06:12:25;6.10;;;3.83;;
20138;SDS011;10230;51.502;10.800;2023-04-25T06:14:51;7.87;;;4.07;;
20138;SDS011;10230;51.502;10.800;2023-04-25T06:17:17;7.53;;;4.17;;
20138;SDS011;10230;51.502;10.800;2023-04-25T06:19:43;8.23;;;4.30;;
20138;SDS011;10230;51.502;10.800;2023-04-25T06:22:09;5.80;;;3.80;;
20138;SDS011;10230;51.502;10.800;2023-04-25T06:24:35;10.43;;;3.60;;
20138;SDS011;10230;51.502;10.800;2023-04-25T06:27:01;6.43;;;3.83;;
20138;SDS011;10230;51.502;10.800;2023-04-25T06:29:28;8.20;;;4.10;;
20138;SDS011;10230;51.502;10.800;2023-04-25T06:31:54;4.77;;;3.37;;
20138;SDS011;10230;51.502;10.800;2023-04-25T06:34:20;5.40;;;2.90;;
20138;SDS011;10230;51.502;10.800;2023-04-25T06:36:46;4.57;;;2.80;;
20138;SDS011;10230;51.502;10.800;2023-04-25T06:39:12;4.97;;;2.87;;
20138;SDS011;10230;51.502;10.800;2023-04-25T06:41:38;3.53;;;2.17;;
20138;SDS011;10230;51.502;10.800;2023-04-25T06:44:04;3.87;;;2.43;;
20138;SDS011;10230;51.502;10.800;2023-04-25T06:46:30;3.03;;;2.23;;
20138;SDS011;10230;51.502;10.800;2023-04-25T06:48:57;5.80;;;2.90;;
20138;SDS011;10230;51.502;10.800;2023-04-25T06:51:23;3.60;;;2.47;;
20138;SDS011;10230;51.502;10.800;2023-04-25T06:53:49;4.13;;;3.43;;
20138;SDS011;10230;51.502;10.800;2023-04-25T06:56:15;2.70;;;2.00;;
20138;SDS011;10230;51.502;10.800;2023-04-25T06:58:41;3.77;;;2.83;;
20138;SDS011;10230;51.502;10.800;2023-04-25T07:01:08;4.03;;;2.60;;
20138;SDS011;10230;51.502;10.800;2023-04-25T07:03:34;2.80;;;1.83;;
20138;SDS011;10230;51.502;10.800;2023-04-25T07:06:02;4.67;;;2.00;;
20138;SDS011;10230;51.502;10.800;2023-04-25T07:08:28;2.80;;;1.50;;
20138;SDS011;10230;51.502;10.800;2023-04-25T07:10:54;3.30;;;1.48;;
20138;SDS011;10230;51.502;10.800;2023-04-25T07:13:20;4.83;;;2.03;;
20138;SDS011;10230;51.502;10.800;2023-04-25T07:15:46;2.30;;;1.50;;
20138;SDS011;10230;51.502;10.800;2023-04-25T07:18:13;2.97;;;1.63;;
20138;SDS011;10230;51.502;10.800;2023-04-25T07:20:40;3.60;;;2.22;;
20138;SDS011;10230;51.502;10.800;2023-04-25T07:23:06;3.27;;;1.23;;
20138;SDS011;10230;51.502;10.800;2023-04-25T07:25:32;1.97;;;1.20;;
20138;SDS011;10230;51.502;10.800;2023-04-25T07:27:58;4.73;;;2.20;;
20138;SDS011;10230;51.502;10.800;2023-04-25T07:30:24;6.43;;;1.70;;
20138;SDS011;10230;51.502;10.800;2023-04-25T07:32:50;3.67;;;1.23;;
20138;SDS011;10230;51.502;10.800;2023-04-25T07:35:16;5.70;;;1.20;;
20138;SDS011;10230;51.502;10.800;2023-04-25T07:37:43;4.70;;;1.40;;
20138;SDS011;10230;51.502;10.800;2023-04-25T07:40:09;3.67;;;1.70;;
20138;SDS011;10230;51.502;10.800;2023-04-25T07:42:35;6.97;;;1.57;;
20138;SDS011;10230;51.502;10.800;2023-04-25T07:45:01;4.87;;;1.70;;
20138;SDS011;10230;51.502;10.800;2023-04-25T07:47:28;5.07;;;2.03;;
20138;SDS011;10230;51.502;10.800;2023-04-25T07:49:54;4.82;;;1.45;;
20138;SDS011;10230;51.502;10.800;2023-04-25T07:52:21;6.67;;;1.70;;
20138;SDS011;10230;51.502;10.800;2023-04-25T07:54:47;7.30;;;1.70;;
20138;SDS011;10230;51.502;10.800;2023-04-25T07:57:13;5.30;;;1.70;;
20138;SDS011;10230;51.502;10.800;2023-04-25T07:59:39;4.97;;;1.27;;
20138;SDS011;10230;51.502;10.800;2023-04-25T08:02:05;9.57;;;2.33;;
20138;SDS011;10230;51.502;10.800;2023-04-25T08:04:31;9.07;;;1.85;;
20138;SDS011;10230;51.502;10.800;2023-04-25T08:06:57;5.13;;;1.75;;
20138;SDS011;10230;51.502;10.800;2023-04-25T08:09:23;8.23;;;1.60;;
20138;SDS011;10230;51.502;10.800;2023-04-25T08:11:50;6.85;;;1.33;;
20138;SDS011;10230;51.502;10.800;2023-04-25T08:14:15;4.88;;;2.10;;
20138;SDS011;10230;51.502;10.800;2023-04-25T08:16:41;6.22;;;1.77;;
20138;SDS011;10230;51.502;10.800;2023-04-25T08:19:08;7.65;;;1.70;;
20138;SDS011;10230;51.502;10.800;2023-04-25T08:21:34;5.20;;;1.60;;
20138;SDS011;10230;51.502;10.800;2023-04-25T08:24:00;6.50;;;1.33;;
20138;SDS011;10230;51.502;10.800;2023-04-25T08:26:26;3.85;;;1.40;;
20138;SDS011;10230;51.502;10.800;2023-04-25T08:28:52;7.03;;;2.47;;
20138;SDS011;10230;51.502;10.800;2023-04-25T08:31:18;4.65;;;1.45;;
20138;SDS011;10230;51.502;10.800;2023-04-25T08:33:44;8.60;;;2.28;;
20138;SDS011;10230;51.502;10.800;2023-04-25T08:36:10;6.68;;;1.55;;
20138;SDS011;10230;51.502;10.800;2023-04-25T08:38:36;4.35;;;1.70;;
20138;SDS011;10230;51.502;10.800;2023-04-25T08:41:03;6.30;;;1.58;;
20138;SDS011;10230;51.502;10.800;2023-04-25T08:43:29;6.45;;;1.80;;
20138;SDS011;10230;51.502;10.800;2023-04-25T08:45:59;4.65;;;1.17;;
20138;SDS011;10230;51.502;10.800;2023-04-25T08:48:29;4.35;;;1.40;;
20138;SDS011;10230;51.502;10.800;2023-04-25T08:50:57;10.40;;;3.33;;
20138;SDS011;10230;51.502;10.800;2023-04-25T08:53:27;7.75;;;1.90;;
20138;SDS011;10230;51.502;10.800;2023-04-25T08:55:54;5.72;;;1.73;;
20138;SDS011;10230;51.502;10.800;2023-04-25T08:58:21;5.35;;;1.67;;
20138;SDS011;10230;51.502;10.800;2023-04-25T09:00:47;4.43;;;1.30;;
20138;SDS011;10230;51.502;10.800;2023-04-25T09:03:14;5.43;;;1.52;;
20138;SDS011;10230;51.502;10.800;2023-04-25T09:05:40;5.10;;;1.73;;
20138;SDS011;10230;51.502;10.800;2023-04-25T09:08:07;4.22;;;1.58;;
20138;SDS011;10230;51.502;10.800;2023-04-25T09:10:33;5.75;;;1.20;;
20138;SDS011;10230;51.502;10.800;2023-04-25T09:13:44;6.15;;;1.75;;
20138;SDS011;10230;51.502;10.800;2023-04-25T09:15:49;6.30;;;1.75;;
20138;SDS011;10230;51.502;10.800;2023-04-25T09:18:23;5.13;;;1.30;;
20138;SDS011;10230;51.502;10.800;2023-04-25T09:20:50;4.35;;;1.50;;
20138;SDS011;10230;51.502;10.800;2023-04-25T09:23:16;5.40;;;1.95;;
20138;SDS011;10230;51.502;10.800;2023-04-25T09:25:45;4.30;;;1.60;;
20138;SDS011;10230;51.502;10.800;2023-04-25T09:28:12;7.22;;;2.05;;
20138;SDS011;10230;51.502;10.800;2023-04-25T09:30:38;7.05;;;1.73;;
20138;SDS011;10230;51.502;10.800;2023-04-25T09:33:05;5.72;;;1.58;;
20138;SDS011;10230;51.502;10.800;2023-04-25T09:35:40;7.93;;;1.50;;
20138;SDS011;10230;51.502;10.800;2023-04-25T09:38:07;4.57;;;1.40;;
20138;SDS011;10230;51.502;10.800;2023-04-25T09:40:33;7.93;;;1.85;;
20138;SDS011;10230;51.502;10.800;2023-04-25T09:42:59;9.98;;;2.13;;
20138;SDS011;10230;51.502;10.800;2023-04-25T09:45:25;6.97;;;1.80;;
20138;SDS011;10230;51.502;10.800;2023-04-25T09:47:56;5.93;;;1.80;;
20138;SDS011;10230;51.502;10.800;2023-04-25T09:50:23;5.40;;;1.92;;
20138;SDS011;10230;51.502;10.800;2023-04-25T09:53:02;4.43;;;1.50;;
20138;SDS011;10230;51.502;10.800;2023-04-25T09:55:28;3.75;;;1.20;;
20138;SDS011;10230;51.502;10.800;2023-04-25T09:57:55;6.03;;;1.27;;
20138;SDS011;10230;51.502;10.800;2023-04-25T10:00:23;2.33;;;1.20;;
20138;SDS011;10230;51.502;10.800;2023-04-25T10:02:50;3.53;;;1.40;;
20138;SDS011;10230;51.502;10.800;2023-04-25T10:05:17;4.20;;;1.40;;
20138;SDS011;10230;51.502;10.800;2023-04-25T10:07:43;7.93;;;3.35;;
20138;SDS011;10230;51.502;10.800;2023-04-25T10:10:09;5.28;;;1.48;;
20138;SDS011;10230;51.502;10.800;2023-04-25T10:12:38;4.05;;;1.33;;
20138;SDS011;10230;51.502;10.800;2023-04-25T10:15:05;6.15;;;1.50;;
20138;SDS011;10230;51.502;10.800;2023-04-25T10:17:33;2.75;;;1.15;;
20138;SDS011;10230;51.502;10.800;2023-04-25T10:20:01;3.88;;;1.30;;
20138;SDS011;10230;51.502;10.800;2023-04-25T10:22:38;4.90;;;1.00;;
20138;SDS011;10230;51.502;10.800;2023-04-25T10:25:09;2.60;;;0.90;;
20138;SDS011;10230;51.502;10.800;2023-04-25T10:27:36;1.23;;;0.60;;
20138;SDS011;10230;51.502;10.800;2023-04-25T10:30:03;1.85;;;0.80;;
20138;SDS011;10230;51.502;10.800;2023-04-25T10:32:30;2.45;;;1.08;;
20138;SDS011;10230;51.502;10.800;2023-04-25T10:34:57;5.38;;;1.10;;
20138;SDS011;10230;51.502;10.800;2023-04-25T10:37:23;3.95;;;0.75;;
20138;SDS011;10230;51.502;10.800;2023-04-25T10:39:50;4.10;;;0.75;;
20138;SDS011;10230;51.502;10.800;2023-04-25T10:42:18;2.83;;;1.15;;
20138;SDS011;10230;51.502;10.800;2023-04-25T10:45:00;3.78;;;0.98;;
20138;SDS011;10230;51.502;10.800;2023-04-25T10:47:34;4.32;;;1.00;;
20138;SDS011;10230;51.502;10.800;2023-04-25T10:50:04;2.90;;;0.80;;
20138;SDS011;10230;51.502;10.800;2023-04-25T10:52:32;2.33;;;1.10;;
20138;SDS011;10230;51.502;10.800;2023-04-25T10:54:58;3.88;;;1.05;;
20138;SDS011;10230;51.502;10.800;2023-04-25T11:00:24;2.45;;;0.75;;
20138;SDS011;10230;51.502;10.800;2023-04-25T11:02:53;1.45;;;0.88;;
20138;SDS011;10230;51.502;10.800;2023-04-25T11:05:23;5.28;;;1.27;;
20138;SDS011;10230;51.502;10.800;2023-04-25T11:07:55;3.95;;;1.10;;
20138;SDS011;10230;51.502;10.800;2023-04-25T11:10:29;3.10;;;0.98;;
20138;SDS011;10230;51.502;10.800;2023-04-25T11:12:56;3.88;;;0.90;;
20138;SDS011;10230;51.502;10.800;2023-04-25T11:15:22;4.70;;;0.98;;
20138;SDS011;10230;51.502;10.800;2023-04-25T11:17:50;2.42;;;0.90;;
20138;SDS011;10230;51.502;10.800;2023-04-25T11:20:16;5.13;;;0.88;;
20138;SDS011;10230;51.502;10.800;2023-04-25T11:22:43;3.75;;;0.85;;
20138;SDS011;10230;51.502;10.800;2023-04-25T11:25:11;6.10;;;1.10;;
20138;SDS011;10230;51.502;10.800;2023-04-25T11:27:53;3.67;;;0.90;;
20138;SDS011;10230;51.502;10.800;2023-04-25T11:30:20;2.47;;;0.90;;
20138;SDS011;10230;51.502;10.800;2023-04-25T11:32:46;1.25;;;0.80;;
20138;SDS011;10230;51.502;10.800;2023-04-25T11:35:12;8.15;;;1.23;;
20138;SDS011;10230;51.502;10.800;2023-04-25T11:37:39;4.63;;;1.17;;
20138;SDS011;10230;51.502;10.800;2023-04-25T11:40:05;3.33;;;0.73;;
20138;SDS011;10230;51.502;10.800;2023-04-25T11:42:32;2.55;;;0.85;;
20138;SDS011;10230;51.502;10.800;2023-04-25T11:44:58;3.22;;;0.90;;
20138;SDS011;10230;51.502;10.800;2023-04-25T11:47:29;2.28;;;0.88;;
20138;SDS011;10230;51.502;10.800;2023-04-25T11:49:55;4.30;;;0.95;;
20138;SDS011;10230;51.502;10.800;2023-04-25T11:52:23;2.92;;;0.93;;
20138;SDS011;10230;51.502;10.800;2023-04-25T11:54:49;4.43;;;1.02;;
20138;SDS011;10230;51.502;10.800;2023-04-25T11:57:18;4.00;;;0.93;;
20138;SDS011;10230;51.502;10.800;2023-04-25T11:59:44;0.90;;;0.60;;
20138;SDS011;10230;51.502;10.800;2023-04-25T12:02:23;3.08;;;0.75;;
20138;SDS011;10230;51.502;10.800;2023-04-25T12:04:50;2.80;;;0.80;;
20138;SDS011;10230;51.502;10.800;2023-04-25T12:07:16;1.75;;;0.80;;
20138;SDS011;10230;51.502;10.800;2023-04-25T12:09:43;2.78;;;0.90;;
20138;SDS011;10230;51.502;10.800;2023-04-25T12:12:17;2.47;;;0.90;;
20138;SDS011;10230;51.502;10.800;2023-04-25T12:14:45;4.13;;;0.90;;
20138;SDS011;10230;51.502;10.800;2023-04-25T12:17:13;1.83;;;1.17;;
20138;SDS011;10230;51.502;10.800;2023-04-25T12:19:39;4.18;;;1.00;;
20138;SDS011;10230;51.502;10.800;2023-04-25T12:22:18;2.40;;;1.05;;
20138;SDS011;10230;51.502;10.800;2023-04-25T12:24:45;1.73;;;0.80;;
20138;SDS011;10230;51.502;10.800;2023-04-25T12:27:13;3.53;;;1.20;;
20138;SDS011;10230;51.502;10.800;2023-04-25T12:29:49;2.85;;;1.50;;
20138;SDS011;10230;51.502;10.800;2023-04-25T12:32:16;5.88;;;0.88;;
20138;SDS011;10230;51.502;10.800;2023-04-25T12:34:42;2.10;;;0.80;;
20138;SDS011;10230;51.502;10.800;2023-04-25T12:37:09;2.05;;;0.95;;
20138;SDS011;10230;51.502;10.800;2023-04-25T12:39:36;2.97;;;1.10;;
20138;SDS011;10230;51.502;10.800;2023-04-25T12:42:02;3.72;;;0.75;;
20138;SDS011;10230;51.502;10.800;2023-04-25T12:44:28;2.60;;;0.98;;
20138;SDS011;10230;51.502;10.800;2023-04-25T12:46:54;4.82;;;0.80;;
20138;SDS011;10230;51.502;10.800;2023-04-25T12:49:21;3.83;;;1.42;;
20138;SDS011;10230;51.502;10.800;2023-04-25T12:51:47;2.90;;;0.63;;
20138;SDS011;10230;51.502;10.800;2023-04-25T12:54:13;1.90;;;0.50;;
20138;SDS011;10230;51.502;10.800;2023-04-25T12:56:39;2.80;;;1.00;;
20138;SDS011;10230;51.502;10.800;2023-04-25T12:59:06;3.20;;;1.13;;
20138;SDS011;10230;51.502;10.800;2023-04-25T13:01:32;4.20;;;1.40;;
20138;SDS011;10230;51.502;10.800;2023-04-25T13:03:58;4.63;;;1.15;;
20138;SDS011;10230;51.502;10.800;2023-04-25T13:06:25;4.43;;;1.50;;
20138;SDS011;10230;51.502;10.800;2023-04-25T13:08:51;4.38;;;0.90;;
20138;SDS011;10230;51.502;10.800;2023-04-25T13:11:17;5.90;;;1.27;;
20138;SDS011;10230;51.502;10.800;2023-04-25T13:13:43;4.07;;;1.15;;
20138;SDS011;10230;51.502;10.800;2023-04-25T13:16:10;2.15;;;0.80;;
20138;SDS011;10230;51.502;10.800;2023-04-25T13:18:39;3.70;;;1.00;;
20138;SDS011;10230;51.502;10.800;2023-04-25T13:21:06;3.58;;;1.30;;
20138;SDS011;10230;51.502;10.800;2023-04-25T13:23:32;5.18;;;1.20;;
20138;SDS011;10230;51.502;10.800;2023-04-25T13:25:58;4.18;;;1.00;;
20138;SDS011;10230;51.502;10.800;2023-04-25T13:28:25;7.50;;;2.35;;
20138;SDS011;10230;51.502;10.800;2023-04-25T13:30:51;2.08;;;0.80;;
20138;SDS011;10230;51.502;10.800;2023-04-25T13:33:18;3.80;;;1.70;;
20138;SDS011;10230;51.502;10.800;2023-04-25T13:35:45;4.28;;;1.52;;
20138;SDS011;10230;51.502;10.800;2023-04-25T13:38:14;1.38;;;0.75;;
20138;SDS011;10230;51.502;10.800;2023-04-25T13:40:40;3.47;;;1.02;;
20138;SDS011;10230;51.502;10.800;2023-04-25T13:43:06;1.95;;;0.70;;
20138;SDS011;10230;51.502;10.800;2023-04-25T13:45:32;1.35;;;0.70;;
20138;SDS011;10230;51.502;10.800;2023-04-25T13:47:58;2.75;;;1.30;;
20138;SDS011;10230;51.502;10.800;2023-04-25T13:50:25;2.15;;;0.82;;
20138;SDS011;10230;51.502;10.800;2023-04-25T13:52:51;2.03;;;0.77;;
20138;SDS011;10230;51.502;10.800;2023-04-25T13:55:17;1.65;;;0.80;;
20138;SDS011;10230;51.502;10.800;2023-04-25T13:57:43;1.63;;;0.65;;
20138;SDS011;10230;51.502;10.800;2023-04-25T14:00:09;2.97;;;1.02;;
20138;SDS011;10230;51.502;10.800;2023-04-25T14:02:35;4.03;;;1.05;;
20138;SDS011;10230;51.502;10.800;2023-04-25T14:05:02;4.35;;;1.13;;
20138;SDS011;10230;51.502;10.800;2023-04-25T14:07:28;6.32;;;1.42;;
20138;SDS011;10230;51.502;10.800;2023-04-25T14:09:55;4.15;;;1.45;;
20138;SDS011;10230;51.502;10.800;2023-04-25T14:12:24;3.63;;;1.00;;
20138;SDS011;10230;51.502;10.800;2023-04-25T14:14:50;1.92;;;1.13;;
20138;SDS011;10230;51.502;10.800;2023-04-25T14:17:17;3.65;;;1.10;;
20138;SDS011;10230;51.502;10.800;2023-04-25T14:19:43;3.00;;;0.90;;
20138;SDS011;10230;51.502;10.800;2023-04-25T14:22:10;2.53;;;0.90;;
20138;SDS011;10230;51.502;10.800;2023-04-25T14:24:37;4.50;;;1.20;;
20138;SDS011;10230;51.502;10.800;2023-04-25T14:27:03;2.53;;;0.90;;
20138;SDS011;10230;51.502;10.800;2023-04-25T14:29:29;2.63;;;0.90;;
20138;SDS011;10230;51.502;10.800;2023-04-25T14:31:55;2.20;;;1.00;;
20138;SDS011;10230;51.502;10.800;2023-04-25T14:34:23;3.85;;;1.20;;